createdAt,value
2023-06-24T00:00:01.899Z,99515.13
2023-06-24T00:02:28.686Z,99515.84
2023-06-24T00:04:55.498Z,99512.69
2023-06-24T00:07:23.814Z,99506.50
2023-06-24T00:09:50.789Z,99510.22
2023-06-24T00:12:20.402Z,99507.94
2023-06-24T00:14:48.018Z,99499.44
2023-06-24T00:17:14.936Z,99503.19
2023-06-24T00:19:41.577Z,99505.28
2023-06-24T00:22:08.189Z,99503.84
2023-06-24T00:24:34.812Z,99504.16
2023-06-24T00:27:01.437Z,99496.56
2023-06-24T00:29:28.008Z,99500.16
2023-06-24T00:31:54.844Z,99511.19
2023-06-24T00:34:21.731Z,99501.56
2023-06-24T00:36:48.363Z,99512.28
2023-06-24T00:39:15.084Z,99519.50
2023-06-24T00:41:41.815Z,99516.09
2023-06-24T00:44:08.507Z,99519.72
2023-06-24T00:46:36.023Z,99523.78
2023-06-24T00:49:03.922Z,99524.09
2023-06-24T00:51:32.350Z,99521.66
2023-06-24T00:53:59.863Z,99526.56
2023-06-24T00:56:32.199Z,99524.22
2023-06-24T00:59:02.633Z,99527.00
2023-06-24T01:01:37.135Z,99525.91
2023-06-24T01:04:04.900Z,99520.72
2023-06-24T01:06:32.261Z,99517.44
2023-06-24T01:09:01.390Z,99514.03
2023-06-24T01:11:28.828Z,99513.31
2023-06-24T01:13:55.821Z,99522.75
2023-06-24T01:16:50.796Z,99534.19
2023-06-24T01:19:25.473Z,99527.31
2023-06-24T01:22:12.813Z,99525.63
2023-06-24T01:24:58.929Z,99526.63
2023-06-24T01:27:32.083Z,99528.56
2023-06-24T01:30:24.386Z,99538.19
2023-06-24T01:33:11.171Z,99531.50
2023-06-24T01:35:39.531Z,99536.06
2023-06-24T01:38:11.459Z,99531.94
2023-06-24T01:40:48.806Z,99526.00
2023-06-24T01:43:18.467Z,99529.69
2023-06-24T01:45:49.009Z,99525.47
2023-06-24T01:48:19.549Z,99534.38
2023-06-24T01:51:10.857Z,99533.59
2023-06-24T01:53:45.484Z,99526.16
2023-06-24T01:56:15.791Z,99530.53
2023-06-24T01:58:45.483Z,99527.13
2023-06-24T02:01:14.205Z,99528.09
2023-06-24T02:03:43.102Z,99528.28
2023-06-24T02:06:13.148Z,99532.19
2023-06-24T02:08:42.650Z,99530.63
2023-06-24T02:11:10.769Z,99526.47
2023-06-24T02:13:40.266Z,99531.13
2023-06-24T02:16:09.924Z,99524.97
2023-06-24T02:18:39.645Z,99524.44
2023-06-24T02:21:06.850Z,99522.84
2023-06-24T02:23:35.617Z,99525.69
2023-06-24T02:26:02.770Z,99532.03
2023-06-24T02:28:30.679Z,99530.53
2023-06-24T02:30:59.592Z,99528.97
2023-06-24T02:33:27.623Z,99526.69
2023-06-24T02:35:54.455Z,99520.66
2023-06-24T02:38:21.341Z,99522.56
2023-06-24T02:40:48.331Z,99523.59
2023-06-24T02:43:15.083Z,99517.56
2023-06-24T02:45:42.232Z,99521.06
2023-06-24T02:48:11.432Z,99522.19
2023-06-24T02:50:41.833Z,99524.09
2023-06-24T02:53:09.448Z,99527.25
2023-06-24T02:55:36.767Z,99518.34
2023-06-24T02:58:06.633Z,99524.44
2023-06-24T03:00:35.276Z,99520.91
2023-06-24T03:03:03.645Z,99522.91
2023-06-24T03:05:32.483Z,99528.41
2023-06-24T03:08:00.008Z,99523.09
2023-06-24T03:10:26.888Z,99524.13
2023-06-24T03:12:54.815Z,99524.47
2023-06-24T03:15:21.504Z,99525.78
2023-06-24T03:17:48.578Z,99518.03
2023-06-24T03:20:15.323Z,99528.88
2023-06-24T03:22:41.962Z,99531.44
2023-06-24T03:25:08.924Z,99535.81
2023-06-24T03:27:36.137Z,99527.09
2023-06-24T03:30:02.788Z,99536.94
2023-06-24T03:32:29.435Z,99536.06
2023-06-24T03:34:56.110Z,99530.91
2023-06-24T03:37:22.909Z,99526.56
2023-06-24T03:39:49.562Z,99522.19
2023-06-24T03:42:16.195Z,99539.00
2023-06-24T03:44:42.848Z,99532.88
2023-06-24T03:47:09.515Z,99540.81
2023-06-24T03:49:36.136Z,99537.44
2023-06-24T03:52:02.940Z,99541.84
2023-06-24T03:54:29.609Z,99536.56
2023-06-24T03:56:56.236Z,99537.31
2023-06-24T03:59:22.862Z,99533.09
2023-06-24T04:01:51.802Z,99540.91
2023-06-24T04:04:18.460Z,99545.38
2023-06-24T04:06:45.149Z,99548.97
2023-06-24T04:09:11.828Z,99554.13
2023-06-24T04:11:38.471Z,99545.25
2023-06-24T04:14:07.787Z,99547.06
2023-06-24T04:16:34.614Z,99542.81
2023-06-24T04:19:01.240Z,99541.97
2023-06-24T04:21:27.973Z,99541.97
2023-06-24T04:23:54.553Z,99543.66
2023-06-24T04:26:21.188Z,99547.16
2023-06-24T04:28:47.760Z,99542.72
2023-06-24T04:31:14.528Z,99540.81
2023-06-24T04:33:41.222Z,99549.59
2023-06-24T04:36:07.931Z,99552.91
2023-06-24T04:38:34.578Z,99550.94
2023-06-24T04:41:01.216Z,99542.72
2023-06-24T04:43:31.196Z,99552.25
2023-06-24T04:45:58.182Z,99546.66
2023-06-24T04:48:25.776Z,99551.13
2023-06-24T04:50:54.697Z,99549.97
2023-06-24T04:53:22.145Z,99546.28
2023-06-24T04:55:48.766Z,99546.72
2023-06-24T04:58:15.467Z,99546.34
2023-06-24T05:00:42.335Z,99553.03
2023-06-24T05:03:09.831Z,99553.69
2023-06-24T05:05:36.732Z,99553.19
2023-06-24T05:08:03.563Z,99556.19
2023-06-24T05:10:30.176Z,99558.44
2023-06-24T05:12:56.873Z,99560.56
2023-06-24T05:15:23.860Z,99551.25
2023-06-24T05:17:53.493Z,99562.09
2023-06-24T05:20:20.531Z,99567.53
2023-06-24T05:22:47.207Z,99567.03
2023-06-24T05:25:13.930Z,99556.84
2023-06-24T05:27:40.636Z,99576.16
2023-06-24T05:30:08.069Z,99561.38
2023-06-24T05:32:34.800Z,99571.13
2023-06-24T05:35:01.715Z,99570.06
2023-06-24T05:37:28.356Z,99563.03
2023-06-24T05:39:55.228Z,99571.94
2023-06-24T05:42:24.042Z,99567.47
2023-06-24T05:44:50.692Z,99568.28
2023-06-24T05:47:17.361Z,99574.19
2023-06-24T05:49:43.945Z,99581.16
2023-06-24T05:52:10.666Z,99585.22
2023-06-24T05:54:37.341Z,99578.03
2023-06-24T05:57:07.217Z,99573.41
2023-06-24T05:59:34.742Z,99572.13
2023-06-24T06:02:02.725Z,99579.88
2023-06-24T06:04:29.912Z,99582.34
2023-06-24T06:06:56.795Z,99579.34
2023-06-24T06:09:23.794Z,99579.13
2023-06-24T06:11:50.621Z,99580.34
2023-06-24T06:14:17.244Z,99572.56
2023-06-24T06:16:43.897Z,99577.28
2023-06-24T06:19:10.661Z,99576.75
2023-06-24T06:21:38.728Z,99574.03
2023-06-24T06:24:05.896Z,99574.91
2023-06-24T06:26:32.568Z,99569.59
2023-06-24T06:28:59.292Z,99576.91
2023-06-24T06:31:27.440Z,99579.41
2023-06-24T06:33:54.264Z,99570.97
2023-06-24T06:36:21.395Z,99575.53
2023-06-24T06:38:48.029Z,99579.22
2023-06-24T06:41:14.786Z,99566.56
2023-06-24T06:43:41.466Z,99576.50
2023-06-24T06:46:08.062Z,99576.28
2023-06-24T06:48:34.787Z,99570.09
2023-06-24T06:51:01.365Z,99572.38
2023-06-24T06:53:28.074Z,99570.50
2023-06-24T06:55:56.578Z,99573.00
2023-06-24T06:58:23.272Z,99569.00
2023-06-24T07:00:50.134Z,99569.84
2023-06-24T07:03:17.941Z,99575.66
2023-06-24T07:05:44.794Z,99572.75
2023-06-24T07:10:38.039Z,99561.25
2023-06-24T07:13:04.853Z,99565.34
2023-06-24T07:15:31.598Z,99558.91
2023-06-24T07:17:58.429Z,99560.03
2023-06-24T07:20:25.889Z,99557.63
2023-06-24T07:22:52.543Z,99544.31
2023-06-24T07:25:19.271Z,99552.47
2023-06-24T07:27:45.914Z,99537.84
2023-06-24T07:30:13.878Z,99542.97
2023-06-24T07:32:40.570Z,99543.53
2023-06-24T07:35:07.494Z,99537.47
2023-06-24T07:37:35.643Z,99538.63
2023-06-24T07:40:04.394Z,99535.56
2023-06-24T07:42:31.741Z,99551.53
2023-06-24T07:44:58.495Z,99546.78
2023-06-24T07:47:25.242Z,99546.03
2023-06-24T07:49:52.001Z,99539.53
2023-06-24T07:52:18.860Z,99544.22
2023-06-24T07:54:45.496Z,99537.94
2023-06-24T07:57:12.976Z,99539.81
2023-06-24T07:59:39.634Z,99539.97
2023-06-24T08:02:06.974Z,99540.22
2023-06-24T08:04:33.684Z,99533.25
2023-06-24T08:07:00.408Z,99537.47
2023-06-24T08:09:27.911Z,99531.84
2023-06-24T08:11:54.512Z,99527.28
2023-06-24T08:14:21.289Z,99524.31
2023-06-24T08:16:47.916Z,99519.09
2023-06-24T08:19:15.146Z,99528.19
2023-06-24T08:21:42.957Z,99516.13
2023-06-24T08:24:09.593Z,99524.91
2023-06-24T08:26:36.257Z,99518.53
2023-06-24T08:29:04.791Z,99522.72
2023-06-24T08:31:31.821Z,99521.84
2023-06-24T08:34:03.180Z,99513.53
2023-06-24T08:36:33.082Z,99506.81
2023-06-24T08:39:00.944Z,99512.56
2023-06-24T08:41:27.676Z,99506.91
2023-06-24T08:43:55.658Z,99501.03
2023-06-24T08:46:25.265Z,99512.59
2023-06-24T08:49:00.576Z,99505.72
2023-06-24T08:51:30.627Z,99503.28
2023-06-24T08:53:59.229Z,99506.38
2023-06-24T08:56:26.632Z,99504.81
2023-06-24T08:58:53.344Z,99509.25
2023-06-24T09:01:21.794Z,99508.72
2023-06-24T09:03:50.452Z,99505.81
2023-06-24T09:06:18.102Z,99514.31
2023-06-24T09:08:56.514Z,99507.19
2023-06-24T09:11:28.185Z,99502.09
2023-06-24T09:14:02.137Z,99496.50
2023-06-24T09:16:30.738Z,99494.56
2023-06-24T09:18:57.366Z,99489.28
2023-06-24T09:21:27.174Z,99484.13
2023-06-24T09:23:57.875Z,99476.47
2023-06-24T09:26:29.554Z,99476.56
2023-06-24T09:28:59.167Z,99476.66
2023-06-24T09:31:25.982Z,99481.00
2023-06-24T09:33:52.876Z,99474.47
2023-06-24T09:36:19.727Z,99469.84
2023-06-24T09:38:46.754Z,99474.94
2023-06-24T09:41:15.778Z,99466.97
2023-06-24T09:43:46.123Z,99446.34
2023-06-24T09:46:13.482Z,99450.56
2023-06-24T09:48:43.059Z,99454.19
2023-06-24T09:51:10.244Z,99445.25
2023-06-24T09:53:37.701Z,99458.09
2023-06-24T09:56:05.498Z,99448.09
2023-06-24T09:58:36.429Z,99448.81
2023-06-24T10:01:05.602Z,99449.84
2023-06-24T10:03:35.976Z,99443.56
2023-06-24T10:06:03.425Z,99442.03
2023-06-24T10:08:31.697Z,99441.84
2023-06-24T10:10:58.598Z,99439.69
2023-06-24T10:13:27.078Z,99436.88
2023-06-24T10:15:53.884Z,99437.25
2023-06-24T10:18:33.319Z,99432.13
2023-06-24T10:21:00.068Z,99430.94
2023-06-24T10:23:45.537Z,99437.56
2023-06-24T10:26:25.012Z,99427.81
2023-06-24T10:29:07.594Z,99435.84
2023-06-24T10:31:40.148Z,99427.78
2023-06-24T10:34:29.777Z,99436.13
2023-06-24T10:37:05.106Z,99423.44
2023-06-24T10:39:51.294Z,99418.78
2023-06-24T10:42:34.726Z,99411.63
2023-06-24T10:45:11.137Z,99406.81
2023-06-24T10:47:41.865Z,99412.06
2023-06-24T10:50:12.900Z,99410.00
2023-06-24T10:52:41.652Z,99403.00
2023-06-24T10:55:08.834Z,99393.63
2023-06-24T10:57:35.852Z,99402.50
2023-06-24T11:00:05.928Z,99394.69
2023-06-24T11:02:32.779Z,99401.47
2023-06-24T11:05:04.035Z,99399.78
2023-06-24T11:07:35.538Z,99394.16
2023-06-24T11:10:13.303Z,99391.56
2023-06-24T11:12:41.656Z,99387.84
2023-06-24T11:15:13.320Z,99381.66
2023-06-24T11:17:42.290Z,99390.03
2023-06-24T11:20:14.263Z,99384.22
2023-06-24T11:22:41.934Z,99378.44
2023-06-24T11:25:17.025Z,99382.38
2023-06-24T11:27:43.791Z,99369.09
2023-06-24T11:30:12.094Z,99366.22
2023-06-24T11:32:43.367Z,99354.50
2023-06-24T11:35:12.244Z,99352.16
2023-06-24T11:37:44.433Z,99348.72
2023-06-24T11:40:11.980Z,99353.03
2023-06-24T11:42:40.790Z,99341.63
2023-06-24T11:45:11.596Z,99348.16
2023-06-24T11:47:40.692Z,99338.91
2023-06-24T11:50:08.644Z,99341.22
2023-06-24T11:52:47.245Z,99335.91
2023-06-24T11:55:14.190Z,99330.31
2023-06-24T11:58:01.250Z,99330.72
2023-06-24T12:00:32.742Z,99327.28
2023-06-24T12:03:02.036Z,99321.59
2023-06-24T12:05:30.913Z,99319.72
2023-06-24T12:08:07.313Z,99317.00
2023-06-24T12:10:35.357Z,99302.69
2023-06-24T12:13:04.704Z,99305.28
2023-06-24T12:15:31.436Z,99296.16
2023-06-24T12:17:58.275Z,99303.13
2023-06-24T12:20:30.804Z,99296.69
2023-06-24T12:22:59.364Z,99288.91
2023-06-24T12:25:26.099Z,99277.97
2023-06-24T12:27:52.773Z,99286.06
2023-06-24T12:30:19.604Z,99288.16
2023-06-24T12:32:46.310Z,99285.81
2023-06-24T12:35:13.761Z,99286.56
2023-06-24T12:37:40.485Z,99286.00
2023-06-24T12:40:08.077Z,99283.25
2023-06-24T12:42:34.789Z,99286.25
2023-06-24T12:45:01.720Z,99279.53
2023-06-24T12:47:28.435Z,99280.03
2023-06-24T12:49:55.225Z,99274.19
2023-06-24T12:52:21.850Z,99274.06
2023-06-24T12:54:49.029Z,99275.47
2023-06-24T12:57:16.609Z,99267.41
2023-06-24T12:59:43.625Z,99266.63
2023-06-24T13:02:10.506Z,99266.13
2023-06-24T13:04:37.402Z,99268.25
2023-06-24T13:07:04.868Z,99270.47
2023-06-24T13:09:31.754Z,99266.50
2023-06-24T13:12:01.188Z,99265.19
2023-06-24T13:14:29.363Z,99263.06
2023-06-24T13:16:59.718Z,99254.97
2023-06-24T13:19:29.637Z,99260.72
2023-06-24T13:21:56.685Z,99249.19
2023-06-24T13:24:23.352Z,99254.84
2023-06-24T13:26:50.097Z,99251.59
2023-06-24T13:29:18.464Z,99251.06
2023-06-24T13:31:45.392Z,99259.66
2023-06-24T13:34:12.292Z,99243.94
2023-06-24T13:36:39.798Z,99248.53
2023-06-24T13:39:08.522Z,99243.28
2023-06-24T13:41:35.594Z,99243.44
2023-06-24T13:44:03.760Z,99239.00
2023-06-24T13:46:31.613Z,99243.13
2023-06-24T13:48:59.468Z,99233.47
2023-06-24T13:51:26.576Z,99225.78
2023-06-24T13:53:54.319Z,99232.69
2023-06-24T13:56:21.727Z,99231.69
2023-06-24T13:58:49.065Z,99228.63
2023-06-24T14:01:16.371Z,99224.72
2023-06-24T14:03:43.804Z,99229.94
2023-06-24T14:06:10.923Z,99227.34
2023-06-24T14:08:38.169Z,99225.09
2023-06-24T14:11:05.042Z,99210.50
2023-06-24T14:13:32.657Z,99215.78
2023-06-24T14:15:59.612Z,99212.09
2023-06-24T14:18:26.509Z,99212.16
2023-06-24T14:20:53.456Z,99211.84
2023-06-24T14:23:20.452Z,99202.97
2023-06-24T14:25:47.145Z,99206.38
2023-06-24T14:28:13.798Z,99201.50
2023-06-24T14:30:40.560Z,99207.03
2023-06-24T14:33:07.802Z,99196.59
2023-06-24T14:35:34.660Z,99191.38
2023-06-24T14:38:01.410Z,99194.97
2023-06-24T14:40:28.069Z,99193.69
2023-06-24T14:42:54.721Z,99185.88
2023-06-24T14:45:21.384Z,99184.25
2023-06-24T14:47:48.096Z,99184.19
2023-06-24T14:50:15.907Z,99179.63
2023-06-24T14:52:42.759Z,99170.44
2023-06-24T14:55:09.808Z,99171.00
2023-06-24T14:57:37.092Z,99167.22
2023-06-24T15:00:05.195Z,99174.53
2023-06-24T15:02:31.953Z,99168.19
2023-06-24T15:04:59.633Z,99164.97
2023-06-24T15:07:26.307Z,99158.97
2023-06-24T15:09:53.018Z,99158.00
2023-06-24T15:12:19.691Z,99154.97
2023-06-24T15:14:47.662Z,99153.59
2023-06-24T15:17:14.282Z,99157.91
2023-06-24T15:19:40.885Z,99152.03
2023-06-24T15:22:07.470Z,99153.81
2023-06-24T15:24:35.271Z,99152.56
2023-06-24T15:27:01.960Z,99145.50
2023-06-24T15:29:28.699Z,99145.72
2023-06-24T15:31:55.508Z,99145.31
2023-06-24T15:34:22.279Z,99140.25
2023-06-24T15:36:48.936Z,99147.06
2023-06-24T15:39:15.558Z,99140.81
2023-06-24T15:41:47.796Z,99136.13
2023-06-24T15:44:14.470Z,99145.28
2023-06-24T15:46:41.130Z,99146.97
2023-06-24T15:49:07.888Z,99136.72
2023-06-24T15:51:34.486Z,99135.81
2023-06-24T15:54:01.117Z,99135.50
2023-06-24T15:56:27.792Z,99140.03
2023-06-24T15:58:54.452Z,99132.72
2023-06-24T16:01:21.141Z,99130.41
2023-06-24T16:03:47.863Z,99129.00
2023-06-24T16:06:14.510Z,99126.72
2023-06-24T16:08:41.215Z,99128.22
2023-06-24T16:11:08.290Z,99118.59
2023-06-24T16:13:34.937Z,99124.31
2023-06-24T16:16:01.778Z,99121.75
2023-06-24T16:18:28.467Z,99113.88
2023-06-24T16:20:56.327Z,99116.81
2023-06-24T16:23:23.017Z,99116.63
2023-06-24T16:25:49.922Z,99110.19
2023-06-24T16:28:18.559Z,99109.06
2023-06-24T16:30:45.348Z,99105.78
2023-06-24T16:33:12.104Z,99109.41
2023-06-24T16:35:38.755Z,99107.38
2023-06-24T16:38:05.455Z,99115.56
2023-06-24T16:40:32.082Z,99108.47
2023-06-24T16:42:58.710Z,99112.88
2023-06-24T16:45:26.053Z,99115.69
2023-06-24T16:47:52.739Z,99111.53
2023-06-24T16:50:19.557Z,99112.25
2023-06-24T16:52:46.287Z,99115.59
2023-06-24T16:55:14.728Z,99111.63
2023-06-24T16:57:41.694Z,99116.25
2023-06-24T17:00:10.159Z,99122.31
2023-06-24T17:02:37.036Z,99118.78
2023-06-24T17:05:05.616Z,99114.00
2023-06-24T17:07:32.349Z,99115.44
2023-06-24T17:09:59.377Z,99111.88
2023-06-24T17:12:26.255Z,99112.97
2023-06-24T17:14:52.914Z,99104.81
2023-06-24T17:17:19.769Z,99102.94
2023-06-24T17:19:46.690Z,99103.16
2023-06-24T17:22:13.359Z,99100.03
2023-06-24T17:24:40.009Z,99102.91
2023-06-24T17:27:07.215Z,99105.03
2023-06-24T17:29:33.880Z,99099.59
2023-06-24T17:32:00.507Z,99091.66
2023-06-24T17:34:27.519Z,99093.53
2023-06-24T17:36:54.138Z,99088.72
2023-06-24T17:39:21.145Z,99089.31
2023-06-24T17:41:47.828Z,99084.72
2023-06-24T17:44:14.548Z,99085.75
2023-06-24T17:46:42.182Z,99088.47
2023-06-24T17:49:09.092Z,99078.91
2023-06-24T17:51:35.748Z,99072.03
2023-06-24T17:54:02.377Z,99086.66
2023-06-24T17:56:29.905Z,99083.72
2023-06-24T17:58:56.608Z,99081.63
2023-06-24T18:01:26.521Z,99084.56
2023-06-24T18:03:53.248Z,99079.56
2023-06-24T18:06:19.947Z,99077.59
2023-06-24T18:08:46.829Z,99082.53
2023-06-24T18:11:13.497Z,99075.44
2023-06-24T18:13:40.239Z,99076.47
2023-06-24T18:16:06.933Z,99077.25
2023-06-24T18:18:34.331Z,99076.19
2023-06-24T18:21:01.095Z,99071.31
2023-06-24T18:23:27.829Z,99077.53
2023-06-24T18:25:54.476Z,99077.09
2023-06-24T18:28:21.204Z,99068.28
2023-06-24T18:30:47.887Z,99073.44
2023-06-24T18:33:14.581Z,99068.78
2023-06-24T18:35:41.518Z,99074.38
2023-06-24T18:38:08.444Z,99073.19
2023-06-24T18:40:35.578Z,99071.47
2023-06-24T18:43:03.462Z,99073.31
2023-06-24T18:45:31.209Z,99065.25
2023-06-24T18:47:58.723Z,99064.78
2023-06-24T18:50:25.682Z,99064.66
2023-06-24T18:52:52.312Z,99064.69
2023-06-24T18:55:19.087Z,99063.13
2023-06-24T18:57:45.804Z,99060.50
2023-06-24T19:00:14.485Z,99053.44
2023-06-24T19:02:41.195Z,99063.03
2023-06-24T19:05:08.211Z,99057.28
2023-06-24T19:07:34.825Z,99065.66
2023-06-24T19:10:04.141Z,99066.78
2023-06-24T19:12:31.246Z,99065.75
2023-06-24T19:14:57.881Z,99065.09
2023-06-24T19:17:24.550Z,99058.22
2023-06-24T19:19:51.297Z,99066.22
2023-06-24T19:22:18.541Z,99066.78
2023-06-24T19:24:45.223Z,99058.88
2023-06-24T19:27:12.467Z,99069.63
2023-06-24T19:29:39.079Z,99066.69
2023-06-24T19:32:06.671Z,99061.59
2023-06-24T19:34:33.393Z,99064.16
2023-06-24T19:37:00.097Z,99066.03
2023-06-24T19:39:26.834Z,99071.97
2023-06-24T19:41:53.463Z,99072.84
2023-06-24T19:44:20.487Z,99075.75
2023-06-24T19:46:47.171Z,99073.47
2023-06-24T19:49:13.954Z,99076.88
2023-06-24T19:51:41.309Z,99075.56
2023-06-24T19:54:07.962Z,99088.19
2023-06-24T19:56:34.750Z,99075.28
2023-06-24T19:59:01.597Z,99075.78
2023-06-24T20:01:28.198Z,99076.66
2023-06-24T20:03:54.944Z,99076.88
2023-06-24T20:06:21.621Z,99077.19
2023-06-24T20:08:48.290Z,99081.22
2023-06-24T20:11:15.185Z,99078.91
2023-06-24T20:13:42.535Z,99080.72
2023-06-24T20:16:09.657Z,99074.00
2023-06-24T20:18:36.361Z,99087.72
2023-06-24T20:21:03.006Z,99080.00
2023-06-24T20:23:29.682Z,99083.34
2023-06-24T20:25:56.326Z,99080.00
2023-06-24T20:28:23.826Z,99077.13
2023-06-24T20:30:50.589Z,99078.31
2023-06-24T20:33:17.548Z,99075.59
2023-06-24T20:35:44.181Z,99076.09
2023-06-24T20:38:10.939Z,99084.47
2023-06-24T20:40:38.388Z,99085.13
2023-06-24T20:43:05.218Z,99088.63
2023-06-24T20:45:31.963Z,99084.03
2023-06-24T20:47:58.743Z,99087.06
2023-06-24T20:50:25.463Z,99079.81
2023-06-24T20:52:52.330Z,99081.63
2023-06-24T20:55:19.387Z,99087.63
2023-06-24T20:57:46.052Z,99092.81
2023-06-24T21:00:13.141Z,99087.34
2023-06-24T21:02:39.998Z,99084.47
2023-06-24T21:05:08.719Z,99082.59
2023-06-24T21:07:35.713Z,99074.75
2023-06-24T21:10:02.602Z,99078.91
2023-06-24T21:12:29.241Z,99074.16
2023-06-24T21:14:55.925Z,99073.66
2023-06-24T21:17:22.706Z,99077.78
2023-06-24T21:19:49.400Z,99073.19
2023-06-24T21:22:16.060Z,99071.97
2023-06-24T21:24:42.757Z,99072.06
2023-06-24T21:27:09.597Z,99069.34
2023-06-24T21:29:36.250Z,99078.84
2023-06-24T21:32:03.077Z,99075.84
2023-06-24T21:34:29.763Z,99069.97
2023-06-24T21:36:56.385Z,99073.78
2023-06-24T21:39:22.999Z,99071.75
2023-06-24T21:41:49.632Z,99064.47
2023-06-24T21:44:16.283Z,99071.28
2023-06-24T21:46:44.319Z,99072.56
2023-06-24T21:49:13.762Z,99062.47
2023-06-24T21:51:40.828Z,99071.38
2023-06-24T21:54:07.500Z,99059.03
2023-06-24T21:56:34.622Z,99062.63
2023-06-24T21:59:01.234Z,99060.09
2023-06-24T22:01:28.678Z,99068.59
2023-06-24T22:03:55.339Z,99067.47
2023-06-24T22:06:23.102Z,99067.66
2023-06-24T22:08:49.798Z,99068.97
2023-06-24T22:11:16.491Z,99070.63
2023-06-24T22:13:43.071Z,99071.78
2023-06-24T22:16:13.326Z,99064.53
2023-06-24T22:18:39.941Z,99062.84
2023-06-24T22:21:06.589Z,99070.97
2023-06-24T22:23:33.327Z,99079.13
2023-06-24T22:26:00.046Z,99074.56
2023-06-24T22:28:26.734Z,99078.78
2023-06-24T22:30:53.428Z,99073.56
2023-06-24T22:33:21.318Z,99081.03
2023-06-24T22:35:47.979Z,99080.34
2023-06-24T22:38:14.572Z,99075.53
2023-06-24T22:40:41.220Z,99082.47
2023-06-24T22:43:07.923Z,99081.50
2023-06-24T22:45:34.549Z,99075.75
2023-06-24T22:48:01.244Z,99073.94
2023-06-24T22:50:28.443Z,99075.22
2023-06-24T22:52:55.098Z,99070.28
2023-06-24T22:55:21.734Z,99075.91
2023-06-24T22:57:48.413Z,99073.97
2023-06-24T23:00:15.450Z,99068.63
2023-06-24T23:02:42.444Z,99074.66
2023-06-24T23:05:09.950Z,99075.78
2023-06-24T23:07:40.883Z,99077.16
2023-06-24T23:10:08.452Z,99072.69
2023-06-24T23:12:36.408Z,99069.47
2023-06-24T23:15:03.668Z,99064.41
2023-06-24T23:17:30.983Z,99067.19
2023-06-24T23:19:58.410Z,99060.19
2023-06-24T23:22:25.533Z,99060.72
2023-06-24T23:24:55.168Z,99069.69
2023-06-24T23:27:24.093Z,99063.78
2023-06-24T23:29:52.118Z,99057.19
2023-06-24T23:32:22.273Z,99053.00
2023-06-24T23:34:49.342Z,99053.69
2023-06-24T23:37:16.422Z,99056.03
2023-06-24T23:39:44.043Z,99043.72
2023-06-24T23:42:11.723Z,99048.59
2023-06-24T23:44:38.655Z,99042.72
2023-06-24T23:47:07.629Z,99047.47
2023-06-24T23:49:34.783Z,99050.69
2023-06-24T23:52:01.496Z,99047.16
2023-06-24T23:54:28.247Z,99039.72
2023-06-24T23:56:56.273Z,99042.66
2023-06-24T23:59:23.627Z,99050.34
